Home > Products > Valid Products > MTR

000
SAUS45 KPUB 302357
MTRSPD
METAR KSPD 302356Z AUTO 19013KT 33/06 A3000 RMK AO1 SLP090 T03330061
10350 20311 56018





000
SAUS45 KPUB 302257
MTRSPD
METAR KSPD 302256Z AUTO 20007KT 34/06 A3002 RMK AO1 SLP094 T03390056





000
SAUS45 KPUB 302257
MTRSPD
METAR KSPD 302256Z AUTO 20007KT 34/06 A3002 RMK AO1 SLP094 T03390056





000
SAUS45 KPUB 302157
MTRSPD
METAR KSPD 302156Z AUTO 22010G19KT 34/07 A3004 RMK AO1 SLP102
T03390067





000
SAUS45 KPUB 302057
MTRSPD
METAR KSPD 302056Z AUTO 22016G22KT 33/07 A3006 RMK AO1 SLP111
T03330067 58017





000
SAUS45 KPUB 301957
MTRSPD
METAR KSPD 301956Z AUTO 23010G20KT 33/06 A3008 RMK AO1 SLP116
T03330061





000
SAUS45 KPUB 301858
MTRSPD
METAR KSPD 301856Z AUTO 21011G20KT 33/07 A3010 RMK AO1 SLP123
T03280072





000
SAUS45 KPUB 301758
MTRSPD
METAR KSPD 301756Z AUTO 22012G19KT 31/07 A3012 RMK AO1 SLP133
T03110072 10322 20156 58012





000
SAUS45 KPUB 301758
MTRSPD
METAR KSPD 301756Z AUTO 22012G19KT 31/07 A3012 RMK AO1 SLP133
T03110072 10322 20156 58012





000
SAUS45 KPUB 301657
MTRSPD
METAR KSPD 301656Z AUTO 20011G23KT 31/08 A3013 RMK AO1 SLP138
T03060083





000
SAUS45 KPUB 301558
MTRSPD
METAR KSPD 301556Z AUTO 22009G16KT 29/10 A3015 RMK AO1 SLP141
T02940100





000
SAUS45 KPUB 301457
MTRSPD
METAR KSPD 301456Z AUTO 23011KT 27/11 A3015 RMK AO1 SLP144 T02720111
58001





000
SAUS45 KPUB 301358
MTRSPD
METAR KSPD 301356Z AUTO 23010G17KT 25/11 A3017 RMK AO1 SLP146
T02500111





000
SAUS45 KPUB 301358
MTRSPD
METAR KSPD 301356Z AUTO 23010G17KT 25/11 A3017 RMK AO1 SLP146
T02500111





000
SAUS45 KPUB 301258
MTRSPD
METAR KSPD 301256Z AUTO 24008KT 21/12 A3017 RMK AO1 SLP149 T02060117





000
SAUS45 KPUB 301258
MTRSPD
METAR KSPD 301256Z AUTO 24008KT 21/12 A3017 RMK AO1 SLP149 T02060117





000
SAUS45 KPUB 301158
MTRSPD
METAR KSPD 301156Z AUTO 22008KT 15/11 A3016 RMK AO1 SLP151 T01500111
10167 20150 55001





000
SAUS45 KPUB 301158
MTRSPD
METAR KSPD 301156Z AUTO 22008KT 15/11 A3016 RMK AO1 SLP151 T01500111
10167 20150 55001





000
SAUS45 KPUB 301058
MTRSPD
METAR KSPD 301056Z AUTO 24009KT 16/11 A3015 RMK AO1 SLP145 T01560111





000
SAUS45 KPUB 301058
MTRSPD
METAR KSPD 301056Z AUTO 24009KT 16/11 A3015 RMK AO1 SLP145 T01560111





000
SAUS45 KPUB 300958
MTRSPD
METAR KSPD 300956Z AUTO 24008KT 15/11 A3015 RMK AO1 SLP149 T01500111





000
SAUS45 KPUB 300857
MTRSPD
METAR KSPD 300856Z AUTO 24006KT 16/11 A3016 RMK AO1 SLP152 T01560111
58006





000
SAUS45 KPUB 300857
MTRSPD
METAR KSPD 300856Z AUTO 24006KT 16/11 A3016 RMK AO1 SLP152 T01560111
58006





000
SAUS45 KPUB 300757
MTRSPD
METAR KSPD 300756Z AUTO 24005KT 16/12 A3017 RMK AO1 SLP159 T01610117





000
SAUS45 KPUB 300657
MTRSPD
METAR KSPD 300656Z AUTO 26005KT 17/12 A3018 RMK AO1 SLP162 T01670117
403000144





000
SAUS45 KPUB 300657
MTRSPD
METAR KSPD 300656Z AUTO 26005KT 17/12 A3018 RMK AO1 SLP162 T01670117
403000144





000
SAUS45 KPUB 300558
MTRSPD
METAR KSPD 300556Z AUTO 24003KT 16/11 A3018 RMK AO1 SLP161 T01560111
10294 20156 51007





000
SAUS45 KPUB 300558
MTRSPD
METAR KSPD 300556Z AUTO 24003KT 16/11 A3018 RMK AO1 SLP161 T01560111
10294 20156 51007





000
SAUS45 KPUB 300458
MTRSPD
METAR KSPD 300456Z AUTO 00000KT 17/11 A3018 RMK AO1 SLP161 T01670106





000
SAUS45 KPUB 300458
MTRSPD
METAR KSPD 300456Z AUTO 00000KT 17/11 A3018 RMK AO1 SLP161 T01670106





000
SAUS45 KPUB 300358
MTRSPD
METAR KSPD 300356Z AUTO 25007KT 19/11 A3018 RMK AO1 SLP157 T01890111





000
SAUS45 KPUB 300358
MTRSPD
METAR KSPD 300356Z AUTO 25007KT 19/11 A3018 RMK AO1 SLP157 T01890111





000
SAUS45 KPUB 300258
MTRSPD
METAR KSPD 300256Z AUTO 23003KT 22/11 A3016 RMK AO1 SLP149 T02170106
53006





000
SAUS45 KPUB 300158
MTRSPD
METAR KSPD 300156Z AUTO 13004KT 25/08 A3014 RMK AO1 SLP143 T02500083





000
SAUS45 KPUB 300158
MTRSPD
METAR KSPD 300156Z AUTO 13004KT 25/08 A3014 RMK AO1 SLP143 T02500083





000
SAUS45 KPUB 300057
MTRSPD
METAR KSPD 300056Z AUTO 08003KT 28/07 A3014 RMK AO1 SLP141 T02830067





000
SAUS45 KPUB 292358
MTRSPD
METAR KSPD 292356Z AUTO 00000KT 29/07 A3014 RMK AO1 SLP140 T02940067
10300 20244 56005





000
SAUS45 KPUB 292358
MTRSPD
METAR KSPD 292356Z AUTO 00000KT 29/07 A3014 RMK AO1 SLP140 T02940067
10300 20244 56005





000
SAUS45 KPUB 292258
MTRSPD
METAR KSPD 292256Z AUTO VRB05KT 30/07 A3014 RMK AO1 SLP145 T03000067





000
SAUS45 KPUB 292258
MTRSPD
METAR KSPD 292256Z AUTO VRB05KT 30/07 A3014 RMK AO1 SLP145 T03000067





000
SAUS45 KPUB 292158
MTRSPD
METAR KSPD 292156Z AUTO 16008KT 29/07 A3014 RMK AO1 SLP145 T02940072





000
SAUS45 KPUB 292158
MTRSPD
METAR KSPD 292156Z AUTO 16008KT 29/07 A3014 RMK AO1 SLP145 T02940072





000
SAUS45 KPUB 292058
MTRSPD
METAR KSPD 292056Z AUTO 14007KT 28/09 A3016 RMK AO1 SLP148 T02830089
58014





000
SAUS45 KPUB 292058
MTRSPD
METAR KSPD 292056Z AUTO 14007KT 28/09 A3016 RMK AO1 SLP148 T02830089
58014





000
SAUS45 KPUB 291958
MTRSPD
METAR KSPD 291956Z AUTO 01006KT 24/11 A3022 RMK AO1 SLP176 T02440106





000
SAUS45 KPUB 291858
MTRSPD
METAR KSPD 291856Z AUTO 05014KT 25/11 A3022 RMK AO1 SLP171 T02500111





000
SAUS45 KPUB 291758
MTRSPD
METAR KSPD 291756Z AUTO 05011KT 26/11 A3020 RMK AO1 SLP163 T02610106
10272 20161 53005





000
SAUS45 KPUB 291657
MTRSPD
METAR KSPD 291656Z AUTO 07007KT 25/11 A3019 RMK AO1 SLP160 T02500111





000
SAUS45 KPUB 291558
MTRSPD
METAR KSPD 291556Z AUTO 11007KT 25/11 A3019 RMK AO1 SLP157 T02500106





000
SAUS45 KPUB 291457
MTRSPD
METAR KSPD 291456Z AUTO 05005KT 24/11 A3018 RMK AO1 SLP159 T02390111
51012





000
SAUS45 KPUB 291457
MTRSPD
METAR KSPD 291456Z AUTO 05005KT 24/11 A3018 RMK AO1 SLP159 T02390111
51012





000
SAUS45 KPUB 291358
MTRSPD
METAR KSPD 291356Z AUTO 33005KT 22/12 A3017 RMK AO1 SLP153 T02170122





000
SAUS45 KPUB 291358
MTRSPD
METAR KSPD 291356Z AUTO 33005KT 22/12 A3017 RMK AO1 SLP153 T02170122





000
SAUS45 KPUB 291258
MTRSPD
METAR KSPD 291256Z AUTO 30007KT 19/12 A3016 RMK AO1 SLP145 T01890122





000
SAUS45 KPUB 291258
MTRSPD
METAR KSPD 291256Z AUTO 30007KT 19/12 A3016 RMK AO1 SLP145 T01890122





000
SAUS45 KPUB 291157
MTRSPD
METAR KSPD 291156Z AUTO 35007KT 17/12 A3014 RMK AO1 SLP138 T01670122
10233 20144 55003





000
SAUS45 KPUB 291157
MTRSPD
METAR KSPD 291156Z AUTO 35007KT 17/12 A3014 RMK AO1 SLP138 T01670122
10233 20144 55003





000
SAUS45 KPUB 291057
MTRSPD
METAR KSPD 291056Z AUTO 32008KT 14/12 A3013 RMK AO1 SLP139 T01440122





000
SAUS45 KPUB 290958
MTRSPD
METAR KSPD 290956Z AUTO 03007KT 16/13 A3014 RMK AO1 SLP139 T01610128





000
SAUS45 KPUB 290858
MTRSPD
METAR KSPD 290856Z AUTO 03006KT 17/13 A3015 RMK AO1 SLP141 T01720128
51002





000
SAUS45 KPUB 290757
MTRSPD
METAR KSPD 290756Z AUTO 30009KT 18/13 A3015 RMK AO1 SLP141 T01830133





000
SAUS45 KPUB 290658
MTRSPD
METAR KSPD 290656Z AUTO 32012KT 21/12 A3017 RMK AO1 PK WND
34029/0631 SLP144 T02060117 403440161





000
SAUS45 KPUB 290557
MTRSPD
METAR KSPD 290556Z AUTO 29006KT 21/08 A3015 RMK AO1 SLP135 T02060078
10328 20189 50011





000
SAUS45 KPUB 290557
MTRSPD
METAR KSPD 290556Z AUTO 29006KT 21/08 A3015 RMK AO1 SLP135 T02060078
10328 20189 50011





000
SAUS45 KPUB 290458
MTRSPD
METAR KSPD 290456Z AUTO 00000KT 22/07 A3015 RMK AO1 SLP136 T02170067





000
SAUS45 KPUB 290357
MTRSPD
METAR KSPD 290356Z AUTO 03004KT 22/07 A3013 RMK AO1 SLP132 T02170067





000
SAUS45 KPUB 290258
MTRSPD
METAR KSPD 290256Z AUTO 04008KT 22/07 A3011 RMK AO1 SLP126 T02170067
52008





000
SAUS45 KPUB 290258
MTRSPD
METAR KSPD 290256Z AUTO 04008KT 22/07 A3011 RMK AO1 SLP126 T02170067
52008





000
SAUS45 KPUB 290158
MTRSPD
METAR KSPD 290156Z AUTO 05007KT 26/06 A3010 RMK AO1 SLP119 T02610056





000
SAUS45 KPUB 290158
MTRSPD
METAR KSPD 290156Z AUTO 05007KT 26/06 A3010 RMK AO1 SLP119 T02610056





000
SAUS45 KPUB 290058
MTRSPD
METAR KSPD 290056Z AUTO 05009KT 31/05 A3009 RMK AO1 SLP118 T03060050





000
SAUS45 KPUB 290058
MTRSPD
METAR KSPD 290056Z AUTO 05009KT 31/05 A3009 RMK AO1 SLP118 T03060050





000
SAUS45 KPUB 282357
MTRSPD
METAR KSPD 282356Z AUTO 02008KT 33/04 A3008 RMK AO1 SLP117 T03280039
10344 20322 56002





000
SAUS45 KPUB 282357
MTRSPD
METAR KSPD 282356Z AUTO 02008KT 33/04 A3008 RMK AO1 SLP117 T03280039
10344 20322 56002





000
SAUS45 KPUB 282258
MTRSPD
METAR KSPD 282256Z AUTO 02011G21KT 33/03 A3008 RMK AO1 SLP117
T03330028





000
SAUS45 KPUB 282157
MTRSPD
METAR KSPD 282156Z AUTO 05009G16KT 33/04 A3008 RMK AO1 SLP117
T03280044





000
SAUS45 KPUB 282057
MTRSPD
METAR KSPD 282056Z AUTO 02014G18KT 33/06 A3009 RMK AO1 SLP119
T03330056 58015





000
SAUS45 KPUB 282057
MTRSPD
METAR KSPD 282056Z AUTO 02014G18KT 33/06 A3009 RMK AO1 SLP119
T03330056 58015





000
SAUS45 KPUB 281957
MTRSPD
METAR KSPD 281956Z AUTO 36014G23KT 33/07 A3011 RMK AO1 PK WND
01027/1936 SLP125 T03280072





000
SAUS45 KPUB 281957
MTRSPD
METAR KSPD 281956Z AUTO 36014G23KT 33/07 A3011 RMK AO1 PK WND
01027/1936 SLP125 T03280072





000
SAUS45 KPUB 281857
MTRSPD
METAR KSPD 281856Z AUTO 36012G24KT 33/08 A3013 RMK AO1 SLP130
T03280078





000
SAUS45 KPUB 281757
MTRSPD
METAR KSPD 281756Z AUTO 34012G21KT 32/08 A3014 RMK AO1 SLP134
T03220083 10322 20167 57003





000
SAUS45 KPUB 281657
MTRSPD
METAR KSPD 281656Z AUTO 36012G18KT 31/08 A3014 RMK AO1 SLP138
T03110083





000
SAUS45 KPUB 281558
MTRSPD
METAR KSPD 281556Z AUTO 34014G19KT 31/10 A3014 RMK AO1 SLP137
T03060100





000
SAUS45 KPUB 281457
MTRSPD
METAR KSPD 281456Z AUTO 34013KT 29/11 A3015 RMK AO1 SLP139 T02890111
53004





000
SAUS45 KPUB 281357
MTRSPD
METAR KSPD 281356Z AUTO 32013G18KT 27/13 A3014 RMK AO1 SLP137
T02670133





000
SAUS45 KPUB 281357
MTRSPD
METAR KSPD 281356Z AUTO 32013G18KT 27/13 A3014 RMK AO1 SLP137
T02670133





000
SAUS45 KPUB 281257
MTRSPD
METAR KSPD 281256Z AUTO 30008KT 22/15 A3014 RMK AO1 SLP136 T02170150





000
SAUS45 KPUB 281257
MTRSPD
METAR KSPD 281256Z AUTO 30008KT 22/15 A3014 RMK AO1 SLP136 T02170150





000
SAUS45 KPUB 281158
MTRSPD
METAR KSPD 281156Z AUTO 24005KT 17/13 A3013 RMK AO1 SLP140 T01670133
10194 20161 55002





000
SAUS45 KPUB 281158
MTRSPD
METAR KSPD 281156Z AUTO 24005KT 17/13 A3013 RMK AO1 SLP140 T01670133
10194 20161 55002





000
SAUS45 KPUB 281057
MTRSPD
METAR KSPD 281056Z AUTO 23008KT 17/12 A3013 RMK AO1 SLP137 T01670117





000
SAUS45 KPUB 281057
MTRSPD
METAR KSPD 281056Z AUTO 23008KT 17/12 A3013 RMK AO1 SLP137 T01670117





000
SAUS45 KPUB 280957
MTRSPD
METAR KSPD 280956Z AUTO 22009KT 18/12 A3013 RMK AO1 SLP137 T01780117





000
SAUS45 KPUB 280957
MTRSPD
METAR KSPD 280956Z AUTO 22009KT 18/12 A3013 RMK AO1 SLP137 T01780117





000
SAUS45 KPUB 280858
MTRSPD
METAR KSPD 280856Z AUTO 20011KT 18/12 A3014 RMK AO1 SLP141 T01780122
58012





000
SAUS45 KPUB 280858
MTRSPD
METAR KSPD 280856Z AUTO 20011KT 18/12 A3014 RMK AO1 SLP141 T01780122
58012





000
SAUS45 KPUB 280758
MTRSPD
METAR KSPD 280756Z AUTO 19011KT 18/13 A3016 RMK AO1 SLP148 T01830128





000
SAUS45 KPUB 280658
MTRSPD
METAR KSPD 280656Z AUTO 19013KT 19/13 A3017 RMK AO1 SLP150 T01890133
403000122





000
SAUS45 KPUB 280658
MTRSPD
METAR KSPD 280656Z AUTO 19013KT 19/13 A3017 RMK AO1 SLP150 T01890133
403000122





000
SAUS45 KPUB 280558
MTRSPD
METAR KSPD 280556Z AUTO 18011KT 19/13 A3018 RMK AO1 SLP155 T01940128
10300 20189 50003





000
SAUS45 KPUB 280558
MTRSPD
METAR KSPD 280556Z AUTO 18011KT 19/13 A3018 RMK AO1 SLP155 T01940128
10300 20189 50003





000
SAUS45 KPUB 280458
MTRSPD
METAR KSPD 280456Z AUTO 17010KT 20/12 A3018 RMK AO1 SLP157 T02000117





000
SAUS45 KPUB 280458
MTRSPD
METAR KSPD 280456Z AUTO 17010KT 20/12 A3018 RMK AO1 SLP157 T02000117





000
SAUS45 KPUB 280357
MTRSPD
METAR KSPD 280356Z AUTO 17008KT 21/11 A3018 RMK AO1 SLP159 T02060111





000
SAUS45 KPUB 280357
MTRSPD
METAR KSPD 280356Z AUTO 17008KT 21/11 A3018 RMK AO1 SLP159 T02060111





000
SAUS45 KPUB 280257
MTRSPD
METAR KSPD 280256Z AUTO 15009KT 22/12 A3017 RMK AO1 SLP155 T02220117
53006





000
SAUS45 KPUB 280257
MTRSPD
METAR KSPD 280256Z AUTO 15009KT 22/12 A3017 RMK AO1 SLP155 T02220117
53006





000
SAUS45 KPUB 280158
MTRSPD
METAR KSPD 280156Z AUTO 14006KT 23/13 A3015 RMK AO1 SLP149 T02330128





000
SAUS45 KPUB 280058
MTRSPD
METAR KSPD 280056Z AUTO 10006KT 29/10 A3014 RMK AO1 SLP145 T02890100





000
SAUS45 KPUB 280058
MTRSPD
METAR KSPD 280056Z AUTO 10006KT 29/10 A3014 RMK AO1 SLP145 T02890100





    US Dept of Commerce
    National Oceanic and Atmospheric Administration
    National Weather Service
    1325 East West Highway
    Silver Spring, MD 20910
    Page Author: NWS Internet Services Team
Disclaimer
Information Quality
Credits
Glossary
Privacy Policy
Freedom of Information Act (FOIA)
About Us
Career Opportunities